createdAt,value
2019-02-22T00:01:14.599Z,34.13
2019-02-22T00:03:44.976Z,37.90
2019-02-22T00:06:15.328Z,34.10
2019-02-22T00:08:45.851Z,42.53
2019-02-22T00:11:16.428Z,49.73
2019-02-22T00:13:46.761Z,44.03
2019-02-22T00:16:17.180Z,40.03
2019-02-22T00:18:47.561Z,38.28
2019-02-22T00:21:17.994Z,38.60
2019-02-22T00:23:48.450Z,37.33
2019-02-22T00:26:20.216Z,39.73
2019-02-22T00:28:50.684Z,35.23
2019-02-22T00:31:21.116Z,38.90
2019-02-22T00:33:51.835Z,38.75
2019-02-22T00:36:22.513Z,37.90
2019-02-22T00:38:53.072Z,35.05
2019-02-22T00:41:23.451Z,37.98
2019-02-22T00:43:53.947Z,34.50
2019-02-22T00:46:24.404Z,37.80
2019-02-22T00:48:54.867Z,34.60
2019-02-22T00:51:25.319Z,35.05
2019-02-22T00:53:55.959Z,38.15
2019-02-22T00:56:26.286Z,34.70
2019-02-22T00:58:56.844Z,36.38
2019-02-22T01:01:27.282Z,34.95
2019-02-22T01:03:57.963Z,39.45
2019-02-22T01:06:28.583Z,38.33
2019-02-22T01:08:58.917Z,34.03
2019-02-22T01:11:29.516Z,38.78
2019-02-22T01:14:00.728Z,35.25
2019-02-22T01:16:31.411Z,32.53
2019-02-22T01:19:01.883Z,34.92
2019-02-22T01:21:33.335Z,38.08
2019-02-22T01:24:03.883Z,37.03
2019-02-22T01:26:35.675Z,37.00
2019-02-22T01:29:07.043Z,34.13
2019-02-22T01:31:37.508Z,37.40
2019-02-22T01:34:09.279Z,35.68
2019-02-22T01:36:39.659Z,39.88
2019-02-22T01:39:09.983Z,40.67
2019-02-22T01:41:40.576Z,42.43
2019-02-22T01:44:21.479Z,38.42
2019-02-22T01:46:51.899Z,41.30
2019-02-22T01:49:22.402Z,39.45
2019-02-22T01:51:52.763Z,39.65
2019-02-22T01:54:23.100Z,35.88
2019-02-22T01:56:53.479Z,34.80
2019-02-22T01:59:37.778Z,40.98
2019-02-22T02:02:42.445Z,35.10
2019-02-22T02:05:15.980Z,40.50
2019-02-22T02:07:46.426Z,37.40
2019-02-22T02:10:16.818Z,43.23
2019-02-22T02:12:47.335Z,44.25
2019-02-22T02:15:18.712Z,38.28
2019-02-22T02:17:49.063Z,40.90
2019-02-22T02:20:19.548Z,38.70
2019-02-22T02:22:51.017Z,39.45
2019-02-22T02:25:30.711Z,44.35
2019-02-22T02:28:23.870Z,36.70
2019-02-22T02:30:56.102Z,37.55
2019-02-22T02:33:26.452Z,35.63
2019-02-22T02:35:56.857Z,40.88
2019-02-22T02:38:27.207Z,38.67
2019-02-22T02:41:08.110Z,37.73
2019-02-22T02:43:30.772Z,39.30
2019-02-22T02:46:01.223Z,42.20
2019-02-22T02:48:32.508Z,48.92
2019-02-22T02:51:03.140Z,41.53
2019-02-22T02:53:33.565Z,40.03
2019-02-22T02:56:04.079Z,36.63
2019-02-22T02:58:35.709Z,36.17
2019-02-22T03:01:06.096Z,41.88
2019-02-22T03:03:37.010Z,37.65
2019-02-22T03:06:21.598Z,34.65
2019-02-22T03:08:51.985Z,35.28
2019-02-22T03:11:24.921Z,42.90
2019-02-22T03:13:55.329Z,38.38
2019-02-22T03:16:25.777Z,38.00
2019-02-22T03:18:56.115Z,35.55
2019-02-22T03:21:26.481Z,35.90
2019-02-22T03:23:56.904Z,37.10
2019-02-22T03:26:27.354Z,35.80
2019-02-22T03:29:00.358Z,36.30
2019-02-22T03:31:32.124Z,36.70
2019-02-22T03:34:13.533Z,43.35
2019-02-22T03:36:43.976Z,37.90
2019-02-22T03:39:14.431Z,37.50
2019-02-22T03:41:45.504Z,35.45
2019-02-22T03:44:16.002Z,35.43
2019-02-22T03:46:46.998Z,42.88
2019-02-22T03:49:17.924Z,42.83
2019-02-22T03:51:49.157Z,41.92
2019-02-22T03:54:22.036Z,39.70
2019-02-22T03:56:59.585Z,35.70
2019-02-22T03:59:43.228Z,35.75
2019-02-22T04:02:20.190Z,42.67
2019-02-22T04:04:55.764Z,42.15
2019-02-22T04:07:28.136Z,40.73
2019-02-22T04:10:05.019Z,39.42
2019-02-22T04:12:39.347Z,41.15
2019-02-22T04:15:12.222Z,41.20
2019-02-22T04:17:43.799Z,36.45
2019-02-22T04:20:17.567Z,40.15
2019-02-22T04:22:49.451Z,39.18
2019-02-22T04:25:27.295Z,38.85
2019-02-22T04:27:59.841Z,36.08
2019-02-22T04:30:32.970Z,38.67
2019-02-22T04:33:05.582Z,42.15
2019-02-22T04:35:37.524Z,36.50
2019-02-22T04:38:08.005Z,43.08
2019-02-22T04:40:38.349Z,37.65
2019-02-22T04:43:10.749Z,40.17
2019-02-22T04:46:23.608Z,39.30
2019-02-22T04:52:23.805Z,38.92
2019-02-22T04:55:01.498Z,38.25
2019-02-22T04:57:34.048Z,38.55
2019-02-22T05:00:06.397Z,48.30
2019-02-22T05:02:37.704Z,42.58
2019-02-22T05:05:10.431Z,42.53
2019-02-22T05:07:42.916Z,43.08
2019-02-22T05:10:13.349Z,39.33
2019-02-22T05:12:43.827Z,40.65
2019-02-22T05:15:14.788Z,44.08
2019-02-22T05:17:45.428Z,44.15
2019-02-22T05:20:20.041Z,41.05
2019-02-22T05:23:03.017Z,41.37
2019-02-22T05:25:23.153Z,45.28
2019-02-22T05:27:53.680Z,42.58
2019-02-22T05:30:24.739Z,46.98
2019-02-22T05:32:56.693Z,42.33
2019-02-22T05:35:27.082Z,42.43
2019-02-22T05:37:57.633Z,41.50
2019-02-22T05:40:28.091Z,44.42
2019-02-22T05:42:59.036Z,44.40
2019-02-22T05:45:29.484Z,44.55
2019-02-22T05:48:00.947Z,43.60
2019-02-22T05:50:31.840Z,40.50
2019-02-22T05:53:02.264Z,41.80
2019-02-22T05:55:32.797Z,43.10
2019-02-22T05:58:03.224Z,43.13
2019-02-22T06:00:33.559Z,39.38
2019-02-22T06:03:04.140Z,41.98
2019-02-22T06:05:34.596Z,42.00
2019-02-22T06:08:05.147Z,43.80
2019-02-22T06:10:35.734Z,42.33
2019-02-22T06:13:06.179Z,40.75
2019-02-22T06:15:36.800Z,43.70
2019-02-22T06:18:07.209Z,41.92
2019-02-22T06:20:39.945Z,40.55
2019-02-22T06:23:10.364Z,36.73
2019-02-22T06:25:40.930Z,36.40
2019-02-22T06:28:11.869Z,42.33
2019-02-22T06:30:42.460Z,36.25
2019-02-22T06:33:13.909Z,32.73
2019-02-22T06:35:44.362Z,44.18
2019-02-22T06:38:14.671Z,36.95
2019-02-22T06:40:47.986Z,37.53
2019-02-22T06:43:17.108Z,37.93
2019-02-22T06:45:47.539Z,35.40
2019-02-22T06:48:17.988Z,38.30
2019-02-22T06:50:48.609Z,39.18
2019-02-22T06:53:18.996Z,39.13
2019-02-22T06:55:52.614Z,34.05
2019-02-22T06:58:23.075Z,38.25
2019-02-22T07:00:56.512Z,36.48
2019-02-22T07:03:26.916Z,35.70
2019-02-22T07:05:57.348Z,38.92
2019-02-22T07:08:28.491Z,45.30
2019-02-22T07:11:08.752Z,37.85
2019-02-22T07:13:40.253Z,37.60
2019-02-22T07:16:12.443Z,36.13
2019-02-22T07:18:43.787Z,41.77
2019-02-22T07:21:14.334Z,39.53
2019-02-22T07:23:44.675Z,39.95
2019-02-22T07:26:15.893Z,39.03
2019-02-22T07:28:46.282Z,39.55
2019-02-22T07:31:16.742Z,40.45
2019-02-22T07:33:47.801Z,41.98
2019-02-22T07:36:18.795Z,40.83
2019-02-22T07:38:49.458Z,41.95
2019-02-22T07:41:19.844Z,41.18
2019-02-22T07:43:50.277Z,39.92
2019-02-22T07:46:20.769Z,45.23
2019-02-22T07:48:51.235Z,41.15
2019-02-22T07:51:22.043Z,40.33
2019-02-22T07:53:52.368Z,44.63
2019-02-22T07:56:23.016Z,42.03
2019-02-22T07:58:54.064Z,44.75
2019-02-22T08:01:26.929Z,41.73
2019-02-22T08:03:56.941Z,47.53
2019-02-22T08:06:27.547Z,52.50
2019-02-22T08:08:58.165Z,51.48
2019-02-22T08:11:28.608Z,43.52
2019-02-22T08:13:59.142Z,40.60
2019-02-22T08:16:30.052Z,41.80
2019-02-22T08:19:01.797Z,41.08
2019-02-22T08:21:32.510Z,40.95
2019-02-22T08:24:02.948Z,39.83
2019-02-22T08:26:33.396Z,43.28
2019-02-22T08:29:03.901Z,37.65
2019-02-22T08:31:35.027Z,38.40
2019-02-22T08:34:05.448Z,41.88
2019-02-22T08:36:35.909Z,42.10
2019-02-22T08:39:06.501Z,45.88
2019-02-22T08:41:37.002Z,45.38
2019-02-22T08:44:07.508Z,41.83
2019-02-22T08:46:37.915Z,40.63
2019-02-22T08:49:08.529Z,41.40
2019-02-22T08:51:39.345Z,43.75
2019-02-22T08:54:09.721Z,43.35
2019-02-22T08:56:41.114Z,47.90
2019-02-22T08:59:11.404Z,43.35
2019-02-22T09:01:41.834Z,42.93
2019-02-22T09:04:12.247Z,49.93
2019-02-22T09:06:42.680Z,47.58
2019-02-22T09:09:13.096Z,45.35
2019-02-22T09:11:44.221Z,49.33
2019-02-22T09:14:14.621Z,47.20
2019-02-22T09:16:44.972Z,47.53
2019-02-22T09:19:15.425Z,40.15
2019-02-22T09:21:45.866Z,42.58
2019-02-22T09:24:16.309Z,48.33
2019-02-22T09:26:46.660Z,47.23
2019-02-22T09:29:16.991Z,46.98
2019-02-22T09:31:47.445Z,47.67
2019-02-22T09:34:19.020Z,50.95
2019-02-22T09:36:49.493Z,49.55
2019-02-22T09:39:19.980Z,48.23
2019-02-22T09:41:50.353Z,46.80
2019-02-22T09:44:21.811Z,46.77
2019-02-22T09:46:52.273Z,51.63
2019-02-22T09:49:22.852Z,50.58
2019-02-22T09:51:54.060Z,51.98
2019-02-22T09:54:25.229Z,49.70
2019-02-22T09:56:56.024Z,45.45
2019-02-22T09:59:26.658Z,42.80
2019-02-22T10:01:57.088Z,47.10
2019-02-22T10:04:27.679Z,40.43
2019-02-22T10:06:58.089Z,41.35
2019-02-22T10:09:28.604Z,39.83
2019-02-22T10:11:58.963Z,40.08
2019-02-22T10:14:29.424Z,35.70
2019-02-22T10:17:00.852Z,33.98
2019-02-22T10:19:31.231Z,35.08
2019-02-22T10:22:01.589Z,37.30
2019-02-22T10:24:32.010Z,35.63
2019-02-22T10:27:02.468Z,31.25
2019-02-22T10:29:33.223Z,34.60
2019-02-22T10:32:03.678Z,33.50
2019-02-22T10:34:34.025Z,27.52
2019-02-22T10:37:04.581Z,33.23
2019-02-22T10:39:35.068Z,27.22
2019-02-22T10:42:05.563Z,27.02
2019-02-22T10:44:36.001Z,24.52
2019-02-22T10:47:06.356Z,28.87
2019-02-22T10:49:36.775Z,26.85
2019-02-22T10:52:07.467Z,30.32
2019-02-22T10:54:38.201Z,22.20
2019-02-22T10:57:08.660Z,18.70
2019-02-22T10:59:40.904Z,21.65
2019-02-22T11:02:11.384Z,18.92
2019-02-22T11:04:41.702Z,21.45
2019-02-22T11:07:12.156Z,19.32
2019-02-22T11:09:42.621Z,18.15
2019-02-22T11:12:13.275Z,14.45
2019-02-22T11:14:43.690Z,17.73
2019-02-22T11:17:14.045Z,14.03
2019-02-22T11:19:44.510Z,12.60
2019-02-22T11:22:14.972Z,8.23
2019-02-22T11:24:47.281Z,11.35
2019-02-22T11:27:17.664Z,14.55
2019-02-22T11:29:49.357Z,14.15
2019-02-22T11:32:19.993Z,15.45
2019-02-22T11:34:50.421Z,11.95
2019-02-22T11:37:20.887Z,4.20
2019-02-22T11:39:52.243Z,4.35
2019-02-22T11:42:22.587Z,2.80
2019-02-22T11:44:52.947Z,2.65
2019-02-22T11:47:23.369Z,2.65
2019-02-22T11:49:53.872Z,1.98
2019-02-22T11:52:26.229Z,1.92
2019-02-22T11:54:58.302Z,1.75
2019-02-22T11:57:28.631Z,1.77
2019-02-22T11:59:58.974Z,1.35
2019-02-22T12:02:29.604Z,1.30
2019-02-22T12:05:00.235Z,1.35
2019-02-22T12:07:31.566Z,1.98
2019-02-22T12:10:01.882Z,2.47
2019-02-22T12:12:33.896Z,3.35
2019-02-22T12:15:04.476Z,4.70
2019-02-22T12:17:35.375Z,4.95
2019-02-22T12:20:07.080Z,5.40
2019-02-22T12:22:37.450Z,5.92
2019-02-22T12:25:08.259Z,6.30
2019-02-22T12:27:38.912Z,8.60
2019-02-22T12:30:11.471Z,7.30
2019-02-22T12:32:42.834Z,7.03
2019-02-22T12:35:13.348Z,6.10
2019-02-22T12:37:43.766Z,6.37
2019-02-22T12:40:14.458Z,7.37
2019-02-22T12:42:45.109Z,7.50
2019-02-22T12:45:15.559Z,5.97
2019-02-22T12:47:46.141Z,4.78
2019-02-22T12:50:16.483Z,4.10
2019-02-22T12:52:46.844Z,4.47
2019-02-22T12:55:17.540Z,3.20
2019-02-22T12:57:48.053Z,2.00
2019-02-22T13:00:21.229Z,2.35
2019-02-22T13:03:01.469Z,1.67
2019-02-22T13:05:24.305Z,1.75
2019-02-22T13:07:54.721Z,1.60
2019-02-22T13:10:25.161Z,2.00
2019-02-22T13:12:55.691Z,2.10
2019-02-22T13:15:26.275Z,1.85
2019-02-22T13:17:56.597Z,1.67
2019-02-22T13:20:28.903Z,2.00
2019-02-22T13:22:59.332Z,1.82
2019-02-22T13:25:29.817Z,2.20
2019-02-22T13:28:00.317Z,3.47
2019-02-22T13:30:30.779Z,3.75
2019-02-22T13:33:01.111Z,3.40
2019-02-22T13:35:31.468Z,3.35
2019-02-22T13:38:02.048Z,5.10
2019-02-22T13:40:32.476Z,3.98
2019-02-22T13:43:05.252Z,4.58
2019-02-22T13:45:35.113Z,5.50
2019-02-22T13:48:06.728Z,5.30
2019-02-22T13:50:37.202Z,5.58
2019-02-22T13:53:07.739Z,4.78
2019-02-22T13:55:39.642Z,4.90
2019-02-22T13:58:10.097Z,4.67
2019-02-22T14:00:40.655Z,6.20
2019-02-22T14:03:10.941Z,6.22
2019-02-22T14:05:41.310Z,11.40
2019-02-22T14:08:11.892Z,12.88
2019-02-22T14:10:42.323Z,13.30
2019-02-22T14:13:12.642Z,16.97
2019-02-22T14:15:43.064Z,15.48
2019-02-22T14:18:13.443Z,17.50
2019-02-22T14:20:43.893Z,18.17
2019-02-22T14:23:14.727Z,15.65
2019-02-22T14:25:45.911Z,17.50
2019-02-22T14:28:16.249Z,18.92
2019-02-22T14:30:46.753Z,17.27
2019-02-22T14:33:17.069Z,19.67
2019-02-22T14:35:47.404Z,20.68
2019-02-22T14:38:18.091Z,18.90
2019-02-22T14:40:48.609Z,17.60
2019-02-22T14:43:18.993Z,21.15
2019-02-22T14:45:53.088Z,20.95
2019-02-22T14:48:21.849Z,17.98
2019-02-22T14:50:52.449Z,18.07
2019-02-22T14:53:22.782Z,20.12
2019-02-22T14:55:53.652Z,19.50
2019-02-22T14:58:23.995Z,20.35
2019-02-22T15:00:55.171Z,19.32
2019-02-22T15:03:25.787Z,19.10
2019-02-22T15:05:56.124Z,19.75
2019-02-22T15:08:26.622Z,20.15
2019-02-22T15:10:56.979Z,19.60
2019-02-22T15:13:27.272Z,19.40
2019-02-22T15:16:15.433Z,23.00
2019-02-22T15:18:45.828Z,22.77
2019-02-22T15:21:17.054Z,24.07
2019-02-22T15:23:47.449Z,24.92
2019-02-22T15:26:18.820Z,23.67
2019-02-22T15:28:49.263Z,20.75
2019-02-22T15:31:19.699Z,25.08
2019-02-22T15:33:50.201Z,23.57
2019-02-22T15:36:20.932Z,21.95
2019-02-22T15:38:51.593Z,22.35
2019-02-22T15:41:21.995Z,21.05
2019-02-22T15:43:52.577Z,22.55
2019-02-22T15:46:23.853Z,24.02
2019-02-22T15:48:57.119Z,23.47
2019-02-22T15:51:27.493Z,24.12
2019-02-22T15:53:57.896Z,25.50
2019-02-22T15:56:28.723Z,21.57
2019-02-22T15:58:59.210Z,22.85
2019-02-22T16:01:29.666Z,27.15
2019-02-22T16:04:06.690Z,25.20
2019-02-22T16:06:37.670Z,24.25
2019-02-22T16:09:08.560Z,24.67
2019-02-22T16:11:40.604Z,25.80
2019-02-22T16:14:11.088Z,22.40
2019-02-22T16:16:42.331Z,23.98
2019-02-22T16:19:13.368Z,25.15
2019-02-22T16:21:44.583Z,26.05
2019-02-22T16:24:15.012Z,23.95
2019-02-22T16:26:45.558Z,24.75
2019-02-22T16:29:16.872Z,23.50
2019-02-22T16:31:49.198Z,22.35
2019-02-22T16:34:20.789Z,20.45
2019-02-22T16:36:52.071Z,21.25
2019-02-22T16:39:26.195Z,22.40
2019-02-22T16:41:56.936Z,20.30
2019-02-22T16:44:27.393Z,17.82
2019-02-22T16:46:58.609Z,17.73
2019-02-22T16:49:30.626Z,19.00
2019-02-22T16:52:05.179Z,17.25
2019-02-22T16:54:35.675Z,17.70
2019-02-22T16:57:06.346Z,19.95
2019-02-22T16:59:36.887Z,18.95
2019-02-22T17:02:07.489Z,18.60
2019-02-22T17:04:38.688Z,34.13
2019-02-22T17:07:10.175Z,21.20
2019-02-22T17:09:40.667Z,17.82
2019-02-22T17:12:11.171Z,29.15
2019-02-22T17:14:41.699Z,25.60
2019-02-22T17:17:12.166Z,22.25
2019-02-22T17:19:42.832Z,17.92
2019-02-22T17:22:13.267Z,16.67
2019-02-22T17:24:44.095Z,17.73
2019-02-22T17:27:14.673Z,19.00
2019-02-22T17:29:45.126Z,18.52
2019-02-22T17:32:16.723Z,18.42
2019-02-22T17:34:47.129Z,20.72
2019-02-22T17:37:17.641Z,22.37
2019-02-22T17:39:48.132Z,20.95
2019-02-22T17:42:18.585Z,21.02
2019-02-22T17:44:48.928Z,22.40
2019-02-22T17:47:22.128Z,22.30
2019-02-22T17:49:52.627Z,23.45
2019-02-22T17:52:23.017Z,27.58
2019-02-22T17:54:53.460Z,27.50
2019-02-22T17:57:23.981Z,22.65
2019-02-22T17:59:54.356Z,29.85
2019-02-22T18:02:25.009Z,43.65
2019-02-22T18:04:56.925Z,32.58
2019-02-22T18:07:27.712Z,42.65
2019-02-22T18:09:58.257Z,25.48
2019-02-22T18:12:30.985Z,21.17
2019-02-22T18:15:01.428Z,23.12
2019-02-22T18:17:31.871Z,24.77
2019-02-22T18:20:02.388Z,22.90
2019-02-22T18:22:32.918Z,26.70
2019-02-22T18:25:03.443Z,50.85
2019-02-22T18:27:33.840Z,44.27
2019-02-22T18:30:04.419Z,30.92
2019-02-22T18:32:35.321Z,30.02
2019-02-22T18:35:06.131Z,39.25
2019-02-22T18:37:36.548Z,46.68
2019-02-22T18:40:09.404Z,56.45
2019-02-22T18:42:39.891Z,45.60
2019-02-22T18:45:10.379Z,28.02
2019-02-22T18:47:40.780Z,24.10
2019-02-22T18:50:11.444Z,23.18
2019-02-22T18:52:41.990Z,23.52
2019-02-22T18:55:12.466Z,22.55
2019-02-22T18:57:42.885Z,28.15
2019-02-22T19:00:15.127Z,27.87
2019-02-22T19:02:45.532Z,33.45
2019-02-22T19:05:16.153Z,27.77
2019-02-22T19:07:46.418Z,26.37
2019-02-22T19:10:17.020Z,29.55
2019-02-22T19:12:47.397Z,23.70
2019-02-22T19:15:17.998Z,24.27
2019-02-22T19:17:48.723Z,22.80
2019-02-22T19:20:19.220Z,23.85
2019-02-22T19:22:49.578Z,22.73
2019-02-22T19:25:19.935Z,21.97
2019-02-22T19:27:50.371Z,20.97
2019-02-22T19:30:20.854Z,22.30
2019-02-22T19:32:51.363Z,20.88
2019-02-22T19:35:21.776Z,21.57
2019-02-22T19:37:52.299Z,24.15
2019-02-22T19:40:22.934Z,25.48
2019-02-22T19:42:53.578Z,21.05
2019-02-22T19:45:24.093Z,21.12
2019-02-22T19:47:54.972Z,21.55
2019-02-22T19:50:25.533Z,21.62
2019-02-22T19:52:55.952Z,24.43
2019-02-22T19:55:26.437Z,21.33
2019-02-22T19:57:59.639Z,20.90
2019-02-22T20:00:30.080Z,21.93
2019-02-22T20:03:01.136Z,19.87
2019-02-22T20:05:31.623Z,21.42
2019-02-22T20:08:01.920Z,22.00
2019-02-22T20:10:32.901Z,21.07
2019-02-22T20:13:05.066Z,22.58
2019-02-22T20:15:36.158Z,24.85
2019-02-22T20:18:08.932Z,24.15
2019-02-22T20:20:39.385Z,23.32
2019-02-22T20:23:09.794Z,28.05
2019-02-22T20:25:40.272Z,27.17
2019-02-22T20:28:10.792Z,28.15
2019-02-22T20:30:41.304Z,31.40
2019-02-22T20:33:11.702Z,31.40
2019-02-22T20:35:42.225Z,33.25
2019-02-22T20:38:14.538Z,34.15
2019-02-22T20:40:44.999Z,29.90
2019-02-22T20:43:15.317Z,32.60
2019-02-22T20:45:45.756Z,30.80
2019-02-22T20:48:16.199Z,35.35
2019-02-22T20:50:46.655Z,36.15
2019-02-22T20:53:17.099Z,38.60
2019-02-22T20:55:47.551Z,41.40
2019-02-22T20:58:17.880Z,41.08
2019-02-22T21:00:48.236Z,44.80
2019-02-22T21:03:20.062Z,41.45
2019-02-22T21:05:50.443Z,42.38
2019-02-22T21:08:20.884Z,45.60
2019-02-22T21:10:51.239Z,47.00
2019-02-22T21:13:21.593Z,52.33
2019-02-22T21:15:52.434Z,46.00
2019-02-22T21:18:23.696Z,48.28
2019-02-22T21:20:54.391Z,44.18
2019-02-22T21:23:24.810Z,46.83
2019-02-22T21:25:55.219Z,47.50
2019-02-22T21:28:25.580Z,47.80
2019-02-22T21:30:56.058Z,52.83
2019-02-22T21:33:26.711Z,47.62
2019-02-22T21:35:57.143Z,47.27
2019-02-22T21:38:27.469Z,47.67
2019-02-22T21:40:58.249Z,50.05
2019-02-22T21:43:28.682Z,46.92
2019-02-22T21:45:59.122Z,48.65
2019-02-22T21:48:29.564Z,45.80
2019-02-22T21:50:59.891Z,45.33
2019-02-22T21:53:30.257Z,46.15
2019-02-22T21:56:00.684Z,49.10
2019-02-22T21:58:31.226Z,49.13
2019-02-22T22:01:01.950Z,49.27
2019-02-22T22:03:33.148Z,50.98
2019-02-22T22:06:03.574Z,48.48
2019-02-22T22:08:33.934Z,50.08
2019-02-22T22:11:04.359Z,50.65
2019-02-22T22:13:35.028Z,47.03
2019-02-22T22:16:05.615Z,55.20
2019-02-22T22:18:38.716Z,52.27
2019-02-22T22:21:08.115Z,50.17
2019-02-22T22:23:38.553Z,49.18
2019-02-22T22:26:10.297Z,52.20
2019-02-22T22:28:41.100Z,52.50
2019-02-22T22:31:12.372Z,51.10
2019-02-22T22:33:42.773Z,55.80
2019-02-22T22:36:13.139Z,53.28
2019-02-22T22:38:45.861Z,53.28
2019-02-22T22:41:16.304Z,50.88
2019-02-22T22:43:48.469Z,58.70
2019-02-22T22:46:18.803Z,47.48
2019-02-22T22:48:50.798Z,47.62
2019-02-22T22:51:21.331Z,46.18
2019-02-22T22:53:51.776Z,48.08
2019-02-22T22:56:22.479Z,50.78
2019-02-22T22:58:52.986Z,48.25
2019-02-22T23:01:27.523Z,50.25
2019-02-22T23:03:58.375Z,53.98
2019-02-22T23:06:29.200Z,50.23
2019-02-22T23:09:00.028Z,51.37
2019-02-22T23:11:30.448Z,48.48
2019-02-22T23:14:01.102Z,48.23
2019-02-22T23:16:32.668Z,51.15
2019-02-22T23:19:04.083Z,50.45
2019-02-22T23:21:34.578Z,50.23
2019-02-22T23:24:07.091Z,48.23
2019-02-22T23:26:37.595Z,44.18
2019-02-22T23:29:07.997Z,45.58
2019-02-22T23:31:38.415Z,49.25
2019-02-22T23:34:08.843Z,46.08
2019-02-22T23:36:39.303Z,45.12
2019-02-22T23:39:10.069Z,46.50
2019-02-22T23:41:40.700Z,48.28
2019-02-22T23:44:12.888Z,47.38
2019-02-22T23:46:43.331Z,49.53
2019-02-22T23:49:14.480Z,48.17
2019-02-22T23:51:45.829Z,48.65
2019-02-22T23:54:16.288Z,48.40
2019-02-22T23:56:46.904Z,45.60
2019-02-22T23:59:17.277Z,47.25
